createdAt,value
2019-05-12T00:00:03.057Z,9.4
2019-05-12T00:15:02.590Z,9.3
2019-05-12T00:30:02.915Z,9.1
2019-05-12T00:45:02.664Z,8.8
2019-05-12T01:00:02.729Z,8.8
2019-05-12T01:15:03.387Z,8.7
2019-05-12T01:30:03.218Z,8.6
2019-05-12T01:45:03.370Z,8.6
2019-05-12T02:00:03.052Z,8.6
2019-05-12T02:15:02.659Z,8.4
2019-05-12T02:30:02.911Z,8.4
2019-05-12T02:45:05.443Z,8.4
2019-05-12T03:00:04.987Z,8.4
2019-05-12T03:15:05.326Z,8.4
2019-05-12T03:30:06.145Z,8.5
2019-05-12T03:45:04.646Z,8.5
2019-05-12T04:00:05.128Z,8.5
2019-05-12T04:15:05.026Z,8.4
2019-05-12T04:30:05.397Z,7.8
2019-05-12T04:45:04.354Z,7.7
2019-05-12T05:00:05.041Z,7.4
2019-05-12T05:15:05.350Z,7.3
2019-05-12T05:30:03.934Z,7.2
2019-05-12T05:45:04.806Z,7.1
2019-05-12T06:00:07.009Z,7.1
2019-05-12T06:15:04.150Z,7.1
2019-05-12T06:30:06.098Z,6.8
2019-05-12T06:45:03.660Z,6.7
2019-05-12T07:00:04.496Z,6.6
2019-05-12T07:15:03.748Z,6.6
2019-05-12T07:30:04.748Z,6.6
2019-05-12T07:45:03.910Z,6.6
2019-05-12T08:00:03.749Z,6.6
2019-05-12T08:15:05.291Z,6.5
2019-05-12T08:30:06.163Z,6.6
2019-05-12T08:45:04.081Z,6.6
2019-05-12T09:00:08.247Z,6.8
2019-05-12T09:15:04.448Z,6.9
2019-05-12T09:30:05.269Z,6.9
2019-05-12T09:45:05.887Z,7
2019-05-12T10:00:04.412Z,7.1
2019-05-12T10:15:04.227Z,7.2
2019-05-12T10:30:11.819Z,7.3
2019-05-12T10:45:04.155Z,7.2
2019-05-12T11:00:04.101Z,7.2
2019-05-12T11:15:06.578Z,7.3
2019-05-12T11:30:04.261Z,7.4
2019-05-12T11:45:02.487Z,7.4
2019-05-12T12:00:05.283Z,7.4
2019-05-12T12:15:04.656Z,7.5
2019-05-12T12:30:15.644Z,7.6
2019-05-12T12:45:04.189Z,8.1
2019-05-12T13:00:03.767Z,8.2
2019-05-12T13:15:03.820Z,7.9
2019-05-12T13:30:05.215Z,7.8
2019-05-12T13:45:03.633Z,7.8
2019-05-12T14:00:08.586Z,7.6
2019-05-12T14:15:03.344Z,7.6
2019-05-12T14:30:09.676Z,7.8
2019-05-12T14:45:04.661Z,7.9
2019-05-12T15:00:03.953Z,8.1
2019-05-12T15:15:03.659Z,8.1
2019-05-12T15:30:04.139Z,8.2
2019-05-12T15:45:06.385Z,8.2
2019-05-12T16:00:04.925Z,8.1
2019-05-12T16:15:04.503Z,7.9
2019-05-12T16:30:04.682Z,7.9
2019-05-12T16:45:05.804Z,7.8
2019-05-12T17:00:06.936Z,7.9
2019-05-12T17:15:03.993Z,7.8
2019-05-12T17:30:04.417Z,7.8
2019-05-12T17:45:03.857Z,7.8
2019-05-12T18:00:06.013Z,7.8
2019-05-12T18:15:04.157Z,7.6
2019-05-12T18:30:04.436Z,7.6
2019-05-12T18:45:11.820Z,7.4
2019-05-12T19:00:04.754Z,7.5
2019-05-12T19:15:04.593Z,7.4
2019-05-12T19:30:04.250Z,7.4
2019-05-12T19:45:06.520Z,7.3
2019-05-12T20:00:04.482Z,7.2
2019-05-12T20:15:03.951Z,7.2
2019-05-12T20:30:06.869Z,7.2
2019-05-12T20:45:05.152Z,7.1
2019-05-12T21:00:06.537Z,7.2
2019-05-12T21:15:13.504Z,7.1
2019-05-12T21:30:09.466Z,7.1
2019-05-12T21:45:04.483Z,7.1
2019-05-12T22:00:04.745Z,7.1
2019-05-12T22:15:03.817Z,7
2019-05-12T22:30:04.369Z,6.9
2019-05-12T22:45:03.794Z,6.9
2019-05-12T23:00:03.933Z,6.9
2019-05-12T23:15:06.968Z,6.9
2019-05-12T23:30:10.733Z,6.9
2019-05-12T23:45:03.564Z,6.8
